»·PEaware :: N256Z KRDM-CYYJ

N256Z :: KRDM-CYYJ

FLIGHT INFORMATION

Flight Status: Arrived
Operator: Privately registered:
United States
More flights under this callsign
Pilot: Gregory A. (9731)
Aircraft: PIPER PA-46-500TP MALIBU MERIDIAN
(P46T)
More flights by this aircraft type
Origin: KRDM Roberts
United States
Destination: CYYJ Victoria Intl
Canada
More flights between these airports :: More routes between these airports
Route: +POWEL J5 SEA ORCUS DISCO DISCO1
File this flight plan on PilotEdge
Remarks:
Altitude:
(Current/Filed)
280ft
Speed:
(Current/Filed)
310kts
Departed: 22-Sep-18 01:43 PM
Arrived: 22-Sep-18 03:12 PM
Distance/Time
Traveled:
280nm/1:28
Distance/Time
To Go:
Arrived

Flight Plot

Page will automatically refresh every two minutes.

Flight plan parsing failed; only flown route is shown


Map Options




Map Legend


Flown Route
Filed Route
Departure Airport
Arrival Airport
Navaid (VOR, NDB)
Fix

Horizontal Profiles

Position Reports

Time Latitude Longitude Heading Altitude Ground
Speed
22-Sep-18 13:22 44.259232 -121.156763 306 3081ft 0kts
22-Sep-18 13:23 44.259232 -121.156763 306 3081ft 0kts
22-Sep-18 13:24 44.259233 -121.156765 306 3081ft 0kts
22-Sep-18 13:25 44.259234 -121.156766 306 3081ft 0kts
22-Sep-18 13:26 44.259234 -121.156766 306 3081ft 0kts
22-Sep-18 13:27 44.259234 -121.156766 306 3081ft 0kts
22-Sep-18 13:28 44.259234 -121.156766 306 3081ft 0kts
22-Sep-18 13:29 44.259234 -121.156766 306 3081ft 0kts
22-Sep-18 13:30 44.259234 -121.156766 306 3081ft 0kts
22-Sep-18 13:31 44.259234 -121.156766 306 3081ft 0kts
22-Sep-18 13:32 44.259234 -121.156766 306 3081ft 0kts
22-Sep-18 13:33 44.259234 -121.156766 306 3081ft 0kts
22-Sep-18 13:34 44.259234 -121.156766 306 3081ft 0kts
22-Sep-18 13:35 44.259234 -121.156766 306 3081ft 0kts
22-Sep-18 13:36 44.259234 -121.156767 306 3081ft 0kts
22-Sep-18 13:37 44.259235 -121.156768 306 3081ft 0kts
22-Sep-18 13:38 44.259237 -121.156772 306 3081ft 0kts
22-Sep-18 13:39 44.259238 -121.156773 306 3081ft 0kts
22-Sep-18 13:40 44.259239 -121.156776 306 3081ft 0kts
22-Sep-18 13:41 44.259240 -121.156779 306 3081ft 0kts
22-Sep-18 13:42 44.259242 -121.156781 306 3081ft 0kts
22-Sep-18 13:43 44.259243 -121.156784 306 3081ft 0kts
22-Sep-18 13:44 44.258700 -121.160576 142 3081ft 16kts
22-Sep-18 13:45 44.254103 -121.150297 119 3195ft 105kts
22-Sep-18 13:46 44.229156 -121.124482 161 5001ft 160kts
22-Sep-18 13:47 44.186647 -121.092797 139 7026ft 171kts
22-Sep-18 13:48 44.205672 -121.057577 333 9426ft 173kts
22-Sep-18 13:49 44.245270 -121.094223 318 11838ft 165kts
22-Sep-18 13:50 44.286440 -121.122315 336 14293ft 180kts
22-Sep-18 13:51 44.337958 -121.142679 339 16717ft 199kts
22-Sep-18 13:52 44.391125 -121.161851 338 19119ft 193kts
22-Sep-18 13:53 44.444566 -121.181062 337 21527ft 202kts
22-Sep-18 13:54 44.499116 -121.200513 336 23922ft 196kts
22-Sep-18 13:55 44.552136 -121.219646 336 26332ft 203kts
22-Sep-18 13:56 44.607234 -121.239510 335 28268ft 219kts
22-Sep-18 13:57 44.672713 -121.263388 337 28307ft 257kts
22-Sep-18 13:58 44.743197 -121.288593 337 28312ft 263kts
22-Sep-18 13:59 44.814102 -121.314113 337 28319ft 263kts
22-Sep-18 14:00 44.884877 -121.339746 337 28327ft 262kts
22-Sep-18 14:01 44.955753 -121.365518 337 28332ft 262kts
22-Sep-18 14:02 45.026191 -121.391210 337 28340ft 261kts
22-Sep-18 14:03 45.096708 -121.417000 337 28348ft 260kts
22-Sep-18 14:04 45.166669 -121.442659 337 28356ft 260kts
22-Sep-18 14:05 45.236928 -121.468504 336 28363ft 261kts
22-Sep-18 14:06 45.307405 -121.494474 336 28367ft 260kts
22-Sep-18 14:07 45.377374 -121.520322 336 28372ft 260kts
22-Sep-18 14:08 45.447169 -121.546175 336 28377ft 259kts
22-Sep-18 14:09 45.517065 -121.572141 336 28379ft 258kts
22-Sep-18 14:10 45.586492 -121.597982 336 28379ft 257kts
22-Sep-18 14:11 45.655771 -121.623847 336 28383ft 257kts
22-Sep-18 14:12 45.725263 -121.649859 336 28379ft 257kts
22-Sep-18 14:13 45.794520 -121.675849 336 28377ft 257kts
22-Sep-18 14:14 45.863585 -121.701826 336 28374ft 257kts
22-Sep-18 14:15 45.932670 -121.727882 336 28370ft 257kts
22-Sep-18 14:16 46.001744 -121.754001 336 28367ft 257kts
22-Sep-18 14:17 46.070974 -121.780239 336 28349ft 256kts
22-Sep-18 14:18 46.139841 -121.806412 336 28349ft 256kts
22-Sep-18 14:19 46.208673 -121.832643 336 28345ft 256kts
22-Sep-18 14:20 46.277732 -121.859027 336 28342ft 256kts
22-Sep-18 14:21 46.346466 -121.885351 336 28339ft 255kts
22-Sep-18 14:22 46.415065 -121.911682 336 28337ft 254kts
22-Sep-18 14:23 46.483709 -121.938105 336 28341ft 254kts
22-Sep-18 14:24 46.551988 -121.964457 336 28341ft 253kts
22-Sep-18 14:25 46.620261 -121.990864 336 28340ft 253kts
22-Sep-18 14:26 46.688307 -122.017280 336 28340ft 254kts
22-Sep-18 14:27 46.756740 -122.043905 336 28345ft 255kts
22-Sep-18 14:28 46.825382 -122.070659 336 28346ft 254kts
22-Sep-18 14:29 46.893614 -122.097320 337 28348ft 253kts
22-Sep-18 14:30 46.961629 -122.123953 336 28352ft 252kts
22-Sep-18 14:31 47.029673 -122.150671 336 28355ft 252kts
22-Sep-18 14:32 47.097218 -122.177242 336 28357ft 251kts
22-Sep-18 14:33 47.164534 -122.203780 336 28357ft 250kts
22-Sep-18 14:34 47.231638 -122.230262 336 28363ft 248kts
22-Sep-18 14:35 47.298079 -122.256513 336 28368ft 247kts
22-Sep-18 14:36 47.364370 -122.282654 336 28371ft 246kts
22-Sep-18 14:37 47.429393 -122.311699 329 28372ft 239kts
22-Sep-18 14:38 47.487289 -122.358630 324 28371ft 237kts
22-Sep-18 14:39 47.543996 -122.408221 324 28383ft 236kts
22-Sep-18 14:40 47.600265 -122.458093 324 28385ft 236kts
22-Sep-18 14:41 47.656741 -122.508439 324 27859ft 238kts
22-Sep-18 14:42 47.713641 -122.559298 324 26602ft 239kts
22-Sep-18 14:43 47.770257 -122.610022 325 25015ft 239kts
22-Sep-18 14:44 47.826428 -122.660422 325 23416ft 235kts
22-Sep-18 14:45 47.882072 -122.710459 325 22419ft 224kts
22-Sep-18 14:46 47.933299 -122.756392 325 22419ft 209kts
22-Sep-18 14:47 47.983957 -122.802168 325 22427ft 215kts
22-Sep-18 14:48 48.036058 -122.849481 325 21746ft 227kts
22-Sep-18 14:49 48.091821 -122.900388 326 20159ft 240kts
22-Sep-18 14:50 48.149091 -122.952615 326 18555ft 237kts
22-Sep-18 14:51 48.205575 -123.005172 325 16960ft 242kts
22-Sep-18 14:52 48.262624 -123.058700 327 15358ft 222kts
22-Sep-18 14:53 48.308799 -123.099621 328 13743ft 173kts
22-Sep-18 14:54 48.344740 -123.131659 328 12298ft 168kts
22-Sep-18 14:55 48.382380 -123.165809 328 10506ft 181kts
22-Sep-18 14:56 48.414635 -123.222241 287 8518ft 190kts
22-Sep-18 14:57 48.427288 -123.300391 281 6522ft 194kts
22-Sep-18 14:58 48.437911 -123.376863 281 5436ft 167kts
22-Sep-18 14:59 48.446592 -123.438773 281 5433ft 140kts
22-Sep-18 15:00 48.460377 -123.491459 293 5440ft 132kts
22-Sep-18 15:01 48.473897 -123.543597 288 5461ft 147kts
22-Sep-18 15:02 48.488657 -123.608700 288 5455ft 175kts
22-Sep-18 15:03 48.504301 -123.679928 284 5455ft 181kts
22-Sep-18 15:04 48.533905 -123.737565 325 5458ft 181kts
22-Sep-18 15:05 48.579919 -123.752019 15 5261ft 179kts
22-Sep-18 15:06 48.626918 -123.736122 13 4651ft 169kts
22-Sep-18 15:07 48.670377 -123.722643 12 4469ft 147kts
22-Sep-18 15:08 48.697424 -123.685196 92 3751ft 140kts
22-Sep-18 15:09 48.687838 -123.628419 105 2716ft 138kts
22-Sep-18 15:10 48.679348 -123.584051 104 2132ft 116kts
22-Sep-18 15:11 48.670787 -123.539451 103 1358ft 107kts
22-Sep-18 15:12 48.661164 -123.488090 104 820ft 134kts
22-Sep-18 15:13 48.651947 -123.439462 104 94ft 98kts
22-Sep-18 15:14 48.648397 -123.421159 117 67ft 24kts
22-Sep-18 15:15 48.645910 -123.421432 233 67ft 11kts
22-Sep-18 15:16 48.645884 -123.421547 292 67ft 0kts
22-Sep-18 15:17 48.645885 -123.421547 292 67ft 0kts

Navigation Log

Ident Type
Flight plan parsing failed, navigation log unavailable